Time;durP1;ratioP1;P1;durP2;ratioP2;P2;SDS_P1;SDS_P2;PMS_P1;PMS_P2;Temp;Humidity;BMP_temperature;BMP_pressure;BME280_temperature;BME280_humidity;BME280_pressure;Samples;Min_cycle;Max_cycle;Signal;HPM_P1;HPM_P2
2023/05/07 00:00:37;;;;;;;0.20;0.20;;;;;;;19.64;47.56;101226.16;5114710;28;20035;-44
2023/05/07 00:03:03;;;;;;;0.20;0.20;;;;;;;19.64;47.33;101223.38;5115227;28;20055;-44
2023/05/07 00:05:29;;;;;;;0.20;0.20;;;;;;;19.64;47.14;101226.16;5116074;27;20050;-42
2023/05/07 00:07:55;;;;;;;0.20;0.20;;;;;;;19.63;47.40;101219.78;5118349;28;20138;-42
2023/05/07 00:10:23;;;;;;;0.20;0.20;;;;;;;19.64;47.14;101217.84;5118081;28;20438;-44
2023/05/07 00:12:49;;;;;;;0.20;0.20;;;;;;;19.64;47.56;101215.91;5116556;28;20487;-43
2023/05/07 00:15:15;;;;;;;0.20;0.20;;;;;;;19.64;47.50;101215.09;5098316;28;20440;-42
2023/05/07 00:17:40;;;;;;;0.20;0.20;;;;;;;19.64;47.38;101217.84;5098194;28;20096;-43
2023/05/07 00:20:07;;;;;;;0.20;0.20;;;;;;;19.63;47.12;101217.03;5105090;28;20680;-43
2023/05/07 00:22:32;;;;;;;0.20;0.20;;;;;;;19.64;47.16;101215.09;5118086;28;20051;-43
2023/05/07 00:24:58;;;;;;;0.20;0.20;;;;;;;19.64;47.31;101218.69;5118280;28;20138;-45
2023/05/07 00:27:24;;;;;;;0.20;0.20;;;;;;;19.64;47.21;101215.09;5099696;28;20051;-41
2023/05/07 00:29:50;;;;;;;0.20;0.20;;;;;;;19.63;47.32;101214.28;5082480;28;20504;-42
2023/05/07 00:32:16;;;;;;;0.20;0.20;;;;;;;19.64;47.22;101206.81;5118016;27;20572;-42
2023/05/07 00:34:43;;;;;;;0.20;0.20;;;;;;;19.64;47.42;101204.03;5118395;28;20099;-46
2023/05/07 00:37:08;;;;;;;0.20;0.20;;;;;;;19.63;47.63;101217.03;5118106;28;20120;-43
2023/05/07 00:39:35;;;;;;;0.20;0.20;;;;;;;19.63;47.21;101208.75;5100783;27;20050;-45
2023/05/07 00:42:00;;;;;;;0.20;0.20;;;;;;;19.63;47.28;101202.41;5119853;27;20095;-45
2023/05/07 00:44:26;;;;;;;0.20;0.20;;;;;;;19.64;47.41;101206.81;5138886;27;20050;-42
2023/05/07 00:46:53;;;;;;;0.30;0.30;;;;;;;19.64;47.45;101201.28;5119057;27;20040;-42
2023/05/07 00:49:19;;;;;;;0.20;0.20;;;;;;;19.64;47.45;101212.34;5116916;28;20105;-43
2023/05/07 00:51:45;;;;;;;0.20;0.20;;;;;;;19.64;47.15;101212.34;5117878;28;20039;-43
2023/05/07 00:54:11;;;;;;;0.20;0.20;;;;;;;19.64;47.30;101210.41;5117714;28;20043;-42
2023/05/07 00:56:37;;;;;;;0.20;0.20;;;;;;;19.65;47.56;101200.19;5117649;28;20039;-42
2023/05/07 00:59:03;;;;;;;0.20;0.20;;;;;;;19.64;47.23;101201.28;5117464;28;20042;-45
2023/05/07 01:01:29;;;;;;;0.25;0.25;;;;;;;19.64;47.50;101195.75;5117041;28;20072;-44
2023/05/07 01:03:55;;;;;;;0.20;0.20;;;;;;;19.63;47.37;101192.16;5117460;28;20450;-42
2023/05/07 01:06:22;;;;;;;0.20;0.20;;;;;;;19.64;47.11;101198.53;5117512;28;20051;-42
2023/05/07 01:08:50;;;;;;;0.20;0.20;;;;;;;19.64;47.16;101198.53;5117075;28;20058;-42
2023/05/07 01:11:16;;;;;;;0.20;0.20;;;;;;;19.65;47.47;101189.16;5117207;28;20047;-42
2023/05/07 01:13:42;;;;;;;0.20;0.20;;;;;;;19.64;47.22;101188.28;5098799;28;20043;-43
2023/05/07 01:16:09;;;;;;;0.20;0.20;;;;;;;19.64;47.34;101190.22;5117691;27;20066;-41
2023/05/07 01:18:35;;;;;;;0.20;0.20;;;;;;;19.63;47.38;101189.41;5117622;28;20467;-43
2023/05/07 01:21:01;;;;;;;0.30;0.30;;;;;;;19.64;47.44;101193.81;5117147;28;20043;-42
2023/05/07 01:23:27;;;;;;;0.20;0.20;;;;;;;19.64;47.12;101193.81;5098904;28;20047;-46
2023/05/07 01:25:54;;;;;;;0.20;0.20;;;;;;;19.63;47.37;101192.16;5099355;28;20128;-43
2023/05/07 01:28:20;;;;;;;0.20;0.20;;;;;;;19.64;47.53;101185.53;5098942;28;20108;-44
2023/05/07 01:31:03;;;;;;;0.20;0.20;;;;;;;19.63;47.31;101183.06;5098092;28;20503;-43
2023/05/07 01:33:32;;;;;;;0.20;0.20;;;;;;;19.64;47.30;101181.94;5098714;28;20047;-43
2023/05/07 01:36:00;;;;;;;0.20;0.20;;;;;;;19.64;47.31;101179.19;5117345;28;20278;-42
2023/05/07 01:38:26;;;;;;;0.20;0.20;;;;;;;19.63;47.21;101178.34;5113217;27;20094;-44
2023/05/07 01:40:53;;;;;;;0.20;0.20;;;;;;;19.64;47.41;101179.19;5109592;28;20571;-43
2023/05/07 01:43:18;;;;;;;0.20;0.20;;;;;;;19.63;47.32;101178.34;5097954;28;20268;-43
2023/05/07 01:45:45;;;;;;;0.20;0.20;;;;;;;19.64;47.45;101177.25;5116998;28;20056;-43
2023/05/07 01:48:12;;;;;;;0.20;0.20;;;;;;;19.64;47.53;101177.25;5107431;28;20051;-44
2023/05/07 01:50:38;;;;;;;0.40;0.40;;;;;;;19.64;47.54;101181.94;5114337;27;20047;-43
2023/05/07 01:53:04;;;;;;;0.20;0.20;;;;;;;19.64;47.21;101176.41;5098919;28;20040;-44
2023/05/07 01:55:30;;;;;;;0.20;0.20;;;;;;;19.64;47.25;101181.94;5096396;28;20372;-45
2023/05/07 01:57:55;;;;;;;0.20;0.20;;;;;;;19.64;47.40;101173.66;5100125;28;20044;-46
2023/05/07 02:00:21;;;;;;;0.20;0.20;;;;;;;19.64;47.50;101179.19;5108444;28;20355;-42
2023/05/07 02:02:47;;;;;;;0.20;0.20;;;;;;;19.64;47.57;101181.94;5116170;28;20134;-45
2023/05/07 02:05:13;;;;;;;0.20;0.20;;;;;;;19.63;47.42;101181.13;5116340;28;20043;-44
2023/05/07 02:07:38;;;;;;;0.20;0.20;;;;;;;19.63;47.21;101181.13;5116980;28;20083;-43
2023/05/07 02:10:05;;;;;;;0.20;0.20;;;;;;;19.63;47.21;101183.88;5116516;28;20424;-41
2023/05/07 02:12:30;;;;;;;0.20;0.20;;;;;;;19.64;47.30;101184.72;5116537;28;20053;-43
2023/05/07 02:14:56;;;;;;;0.20;0.20;;;;;;;19.64;47.48;101180.00;5116464;28;20047;-46
2023/05/07 02:17:22;;;;;;;0.20;0.20;;;;;;;19.64;47.21;101173.66;5116216;28;20396;-43
2023/05/07 02:19:47;;;;;;;0.20;0.20;;;;;;;19.63;47.59;101178.34;5099097;28;20035;-41
2023/05/07 02:22:13;;;;;;;0.20;0.20;;;;;;;19.64;47.38;101179.19;5104334;28;20035;-47
2023/05/07 02:24:38;;;;;;;0.20;0.20;;;;;;;19.64;47.41;101177.25;5116268;28;20039;-42
2023/05/07 02:27:04;;;;;;;0.20;0.20;;;;;;;19.64;47.27;101177.25;5102751;28;20051;-43
2023/05/07 02:29:30;;;;;;;0.30;0.30;;;;;;;19.64;47.57;101173.66;5097967;28;20055;-43
2023/05/07 02:31:56;;;;;;;0.30;0.30;;;;;;;19.65;47.59;101172.56;5116066;27;20057;-43
2023/05/07 02:34:21;;;;;;;0.20;0.20;;;;;;;19.64;47.27;101179.19;5116412;28;20039;-43
2023/05/07 02:36:47;;;;;;;0.20;0.20;;;;;;;19.64;47.27;101176.41;5098641;28;20492;-41
2023/05/07 02:39:13;;;;;;;0.20;0.20;;;;;;;19.64;47.54;101182.75;5106566;27;20054;-43
2023/05/07 02:41:39;;;;;;;0.20;0.20;;;;;;;19.64;47.36;101185.53;5115523;28;20108;-42
2023/05/07 02:44:05;;;;;;;0.20;0.20;;;;;;;19.64;47.61;101188.28;5115109;28;20461;-43
2023/05/07 02:46:30;;;;;;;0.20;0.20;;;;;;;19.64;47.54;101170.88;5115498;28;20047;-43
2023/05/07 02:48:56;;;;;;;0.20;0.20;;;;;;;19.64;47.49;101181.94;5114958;28;20067;-41
2023/05/07 02:51:22;;;;;;;0.30;0.30;;;;;;;19.63;47.19;101183.88;5098996;28;20384;-44
2023/05/07 02:53:51;;;;;;;0.20;0.20;;;;;;;19.63;47.33;101181.13;5097428;28;20085;-42
2023/05/07 02:56:17;;;;;;;0.20;0.20;;;;;;;19.63;47.17;101183.88;5115243;28;20431;-42
2023/05/07 02:58:42;;;;;;;0.20;0.20;;;;;;;19.64;47.45;101182.75;5115156;28;20043;-43
2023/05/07 03:01:08;;;;;;;0.20;0.20;;;;;;;19.64;47.21;101191.06;5115460;28;20070;-46
2023/05/07 03:03:34;;;;;;;0.20;0.20;;;;;;;19.63;47.50;101186.66;5115348;28;20274;-45
2023/05/07 03:06:00;;;;;;;0.20;0.20;;;;;;;19.63;47.07;101183.06;5115383;28;20048;-42
2023/05/07 03:08:26;;;;;;;0.20;0.20;;;;;;;19.64;47.42;101184.72;5114729;28;20058;-45
2023/05/07 03:10:52;;;;;;;0.28;0.28;;;;;;;19.64;47.28;101181.94;5096431;28;20047;-43
2023/05/07 03:13:17;;;;;;;0.20;0.20;;;;;;;19.63;47.38;101183.06;5096265;28;20584;-42
2023/05/07 03:15:43;;;;;;;0.30;0.30;;;;;;;19.65;47.58;101178.09;5115312;28;20096;-45
2023/05/07 03:18:10;;;;;;;0.20;0.20;;;;;;;19.63;47.21;101175.59;5115143;28;20046;-44
2023/05/07 03:20:36;;;;;;;0.20;0.20;;;;;;;19.64;47.32;101176.41;5096720;28;20049;-42
2023/05/07 03:23:02;;;;;;;0.20;0.20;;;;;;;19.64;47.48;101168.13;5096950;28;20054;-43
2023/05/07 03:25:29;;;;;;;0.20;0.20;;;;;;;19.63;47.40;101170.06;5114989;28;20566;-44
2023/05/07 03:27:56;;;;;;;0.10;0.10;;;;;;;19.64;47.29;101168.13;5115218;28;20511;-43
2023/05/07 03:30:21;;;;;;;0.38;0.38;;;;;;;19.63;47.51;101178.34;5096351;28;20055;-42
2023/05/07 03:32:47;;;;;;;0.20;0.20;;;;;;;19.64;47.23;101179.19;5115265;27;20053;-44
2023/05/07 03:35:13;;;;;;;0.20;0.20;;;;;;;19.64;47.49;101171.72;5096918;28;20887;-42
2023/05/07 03:37:39;;;;;;;0.20;0.20;;;;;;;19.64;47.50;101174.47;5115092;28;20076;-45
2023/05/07 03:40:05;;;;;;;0.20;0.20;;;;;;;19.64;47.19;101177.25;5096412;28;20047;-44
2023/05/07 03:42:31;;;;;;;0.20;0.20;;;;;;;19.63;47.45;101170.06;5100113;28;20044;-42
2023/05/07 03:44:57;;;;;;;0.25;0.25;;;;;;;19.63;47.32;101169.25;5118160;28;20081;-44
2023/05/07 03:47:22;;;;;;;0.20;0.20;;;;;;;19.64;47.25;101168.13;5118762;28;20043;-45
2023/05/07 03:49:49;;;;;;;0.20;0.20;;;;;;;19.64;47.37;101173.66;5118189;27;20051;-43
2023/05/07 03:52:15;;;;;;;0.20;0.20;;;;;;;19.64;47.34;101173.66;5118508;28;20496;-45
2023/05/07 03:54:40;;;;;;;0.32;0.32;;;;;;;19.63;47.31;101170.06;5100235;28;20466;-45
2023/05/07 03:57:06;;;;;;;0.20;0.20;;;;;;;19.64;47.23;101179.19;5118485;28;20043;-44
2023/05/07 03:59:32;;;;;;;0.20;0.20;;;;;;;19.64;47.45;101170.88;5117921;28;20396;-44
2023/05/07 04:01:57;;;;;;;0.20;0.20;;;;;;;19.64;47.48;101185.53;5118813;28;20043;-46
2023/05/07 04:04:23;;;;;;;0.20;0.20;;;;;;;19.65;47.55;101178.09;5118505;28;20051;-42
2023/05/07 04:06:49;;;;;;;0.20;0.20;;;;;;;19.64;47.16;101180.00;5099681;28;20043;-44
2023/05/07 04:09:15;;;;;;;0.20;0.20;;;;;;;19.64;47.15;101184.72;5117892;28;20047;-43
2023/05/07 04:11:40;;;;;;;0.20;0.20;;;;;;;19.64;47.22;101184.72;5116641;28;20072;-44
2023/05/07 04:14:06;;;;;;;0.20;0.20;;;;;;;19.63;47.32;101189.41;5129288;27;20057;-42
2023/05/07 04:16:32;;;;;;;0.20;0.20;;;;;;;19.64;47.33;101191.06;5138531;27;20099;-43
2023/05/07 04:18:57;;;;;;;0.20;0.20;;;;;;;19.63;47.20;101186.66;5129345;27;20050;-44
2023/05/07 04:21:23;;;;;;;0.20;0.20;;;;;;;19.64;47.22;101187.47;5117841;28;20039;-42
2023/05/07 04:23:49;;;;;;;0.20;0.20;;;;;;;19.63;47.20;101186.66;5118377;28;20521;-44
2023/05/07 04:26:15;;;;;;;0.20;0.20;;;;;;;19.63;47.57;101192.16;5099777;28;20054;-42
2023/05/07 04:28:41;;;;;;;0.20;0.20;;;;;;;19.64;47.27;101188.28;5118103;28;20522;-46
2023/05/07 04:31:07;;;;;;;0.20;0.20;;;;;;;19.63;47.52;101186.66;5098905;27;20107;-44
2023/05/07 04:33:33;;;;;;;0.20;0.20;;;;;;;19.64;47.13;101181.94;5099700;28;20615;-45
2023/05/07 04:36:03;;;;;;;0.20;0.20;;;;;;;19.64;47.44;101185.53;5118063;28;20225;-45
2023/05/07 04:38:31;;;;;;;0.20;0.20;;;;;;;19.64;47.64;101181.94;5099052;28;20510;-44
2023/05/07 04:40:57;;;;;;;0.20;0.20;;;;;;;19.64;47.27;101181.94;5099129;28;20039;-43
2023/05/07 04:43:23;;;;;;;0.20;0.20;;;;;;;19.64;47.38;101173.66;5117584;28;20311;-43
2023/05/07 04:45:51;;;;;;;0.20;0.20;;;;;;;19.63;47.26;101181.13;5117800;28;20054;-45
2023/05/07 04:48:18;;;;;;;0.32;0.32;;;;;;;19.64;47.46;101181.94;5099043;28;20047;-43
2023/05/07 04:50:47;;;;;;;0.20;0.20;;;;;;;19.63;47.42;101175.59;5116760;27;20155;-42
2023/05/07 04:53:13;;;;;;;0.20;0.20;;;;;;;19.63;47.26;101183.88;5104864;28;20081;-41
2023/05/07 04:55:38;;;;;;;0.30;0.30;;;;;;;19.64;47.39;101182.75;5117651;28;20051;-42
2023/05/07 04:58:04;;;;;;;0.20;0.20;;;;;;;19.64;47.19;101174.47;5098733;28;20053;-43
2023/05/07 05:00:30;;;;;;;0.20;0.20;;;;;;;19.64;47.23;101179.19;5116808;28;20055;-43
2023/05/07 05:02:56;;;;;;;0.20;0.20;;;;;;;19.63;47.40;101188.59;5117036;28;20046;-42
2023/05/07 05:05:22;;;;;;;0.20;0.20;;;;;;;19.64;47.25;101184.72;5117655;28;20049;-45
2023/05/07 05:07:48;;;;;;;0.20;0.20;;;;;;;19.63;47.67;101189.41;5117241;28;20126;-43
2023/05/07 05:10:13;;;;;;;0.20;0.20;;;;;;;19.63;47.45;101189.41;5116833;28;20051;-42
2023/05/07 05:12:39;;;;;;;0.20;0.20;;;;;;;19.64;47.36;101191.06;5107167;27;20062;-42
2023/05/07 05:15:06;;;;;;;0.20;0.20;;;;;;;19.63;47.23;101188.59;5096205;28;20048;-44
2023/05/07 05:17:31;;;;;;;0.20;0.20;;;;;;;19.63;47.33;101197.69;5078524;28;20416;-42
2023/05/07 05:19:57;;;;;;;0.20;0.20;;;;;;;19.64;47.58;101199.34;5101501;28;20491;-43
2023/05/07 05:22:22;;;;;;;0.20;0.20;;;;;;;19.64;47.20;101195.75;5116422;28;20043;-43
2023/05/07 05:24:48;;;;;;;0.20;0.20;;;;;;;19.64;47.32;101198.53;5116557;28;20595;-43
2023/05/07 05:27:14;;;;;;;0.20;0.20;;;;;;;19.64;47.47;101195.75;5117398;28;20047;-43
2023/05/07 05:29:39;;;;;;;0.20;0.20;;;;;;;19.64;47.20;101198.53;5116122;28;20084;-42
2023/05/07 05:32:05;;;;;;;0.20;0.20;;;;;;;19.63;47.22;101200.47;5116046;27;20043;-44
2023/05/07 05:34:33;;;;;;;0.20;0.20;;;;;;;19.64;47.29;101204.88;5116870;28;20047;-44
2023/05/07 05:36:59;;;;;;;0.20;0.20;;;;;;;19.64;47.29;101215.09;5117421;28;20072;-44
2023/05/07 05:39:24;;;;;;;0.20;0.20;;;;;;;19.64;47.30;101215.09;5098463;28;20062;-44
2023/05/07 05:41:50;;;;;;;0.20;0.20;;;;;;;19.64;47.67;101215.09;5116935;28;20063;-43
2023/05/07 05:44:16;;;;;;;0.20;0.20;;;;;;;19.64;47.42;101212.34;5117097;28;20047;-43
2023/05/07 05:46:42;;;;;;;0.20;0.20;;;;;;;19.64;47.24;101218.69;5117342;28;20385;-42
2023/05/07 05:49:08;;;;;;;0.20;0.20;;;;;;;19.63;47.26;101214.28;5116841;28;20051;-42
2023/05/07 05:51:34;;;;;;;0.20;0.20;;;;;;;19.64;47.38;101215.09;5116509;27;20043;-42
2023/05/07 05:53:59;;;;;;;0.20;0.20;;;;;;;19.63;47.24;101213.44;5116199;28;20069;-43
2023/05/07 05:56:25;;;;;;;0.20;0.20;;;;;;;19.64;47.22;101217.84;5116314;28;20047;-44
2023/05/07 05:58:51;;;;;;;0.45;0.25;;;;;;;19.63;47.43;101219.78;5116834;27;20047;-43
2023/05/07 06:01:17;;;;;;;0.20;0.20;;;;;;;19.63;47.43;101217.03;5116379;27;20047;-43
2023/05/07 06:03:43;;;;;;;0.20;0.20;;;;;;;19.64;47.62;101209.56;5115796;27;20552;-41
2023/05/07 06:06:09;;;;;;;0.20;0.20;;;;;;;19.64;47.51;101206.81;5116877;28;20051;-43
2023/05/07 06:08:35;;;;;;;0.20;0.20;;;;;;;19.64;47.29;101220.63;5117109;28;20169;-42
2023/05/07 06:11:01;;;;;;;0.20;0.20;;;;;;;19.63;47.41;101217.03;5111872;27;20043;-44
2023/05/07 06:13:26;;;;;;;0.20;0.20;;;;;;;19.63;47.52;101224.50;5110032;27;20077;-43
2023/05/07 06:15:52;;;;;;;0.20;0.20;;;;;;;19.63;47.46;101232.78;5136860;27;20046;-43
2023/05/07 06:18:18;;;;;;;0.20;0.20;;;;;;;19.64;47.30;101231.66;5121944;27;20043;-44
2023/05/07 06:20:44;;;;;;;0.20;0.20;;;;;;;19.63;47.39;101225.31;5116072;28;20074;-44
2023/05/07 06:23:09;;;;;;;0.20;0.20;;;;;;;19.64;47.22;101228.91;5116083;28;20422;-42
2023/05/07 06:25:35;;;;;;;0.20;0.20;;;;;;;19.63;47.21;101241.91;5115703;28;20058;-43
2023/05/07 06:28:00;;;;;;;0.20;0.20;;;;;;;19.63;47.20;101239.13;5115874;28;20207;-46
2023/05/07 06:30:26;;;;;;;0.28;0.28;;;;;;;19.64;47.41;101239.97;5115211;28;20484;-43
2023/05/07 06:32:52;;;;;;;0.20;0.20;;;;;;;19.63;47.33;101239.13;5115914;27;20046;-44
2023/05/07 06:35:18;;;;;;;0.20;0.20;;;;;;;19.63;47.52;101236.38;5116148;28;20083;-43
2023/05/07 06:37:44;;;;;;;0.20;0.20;;;;;;;19.64;47.38;101234.44;5115720;28;20439;-41
2023/05/07 06:40:10;;;;;;;0.30;0.30;;;;;;;19.63;47.29;101233.63;5097484;28;20082;-44
2023/05/07 06:42:37;;;;;;;0.20;0.20;;;;;;;19.64;47.33;101234.44;5115932;28;20043;-43
2023/05/07 06:45:04;;;;;;;0.20;0.20;;;;;;;19.64;47.56;101242.72;5097454;28;20047;-43
2023/05/07 06:47:29;;;;;;;0.20;0.20;;;;;;;19.63;47.37;101230.84;5115549;28;20099;-45
2023/05/07 06:49:55;;;;;;;0.20;0.20;;;;;;;19.63;47.31;101230.84;5115341;28;20047;-42
2023/05/07 06:52:21;;;;;;;0.20;0.20;;;;;;;19.64;47.32;101234.44;5115537;28;20163;-43
2023/05/07 06:54:46;;;;;;;0.20;0.20;;;;;;;19.64;47.28;101239.97;5115593;28;20047;-44
2023/05/07 06:57:12;;;;;;;0.20;0.20;;;;;;;19.63;47.13;101233.63;5115083;28;20051;-42
2023/05/07 06:59:38;;;;;;;0.20;0.20;;;;;;;19.64;47.39;101237.19;5115320;27;20479;-43
2023/05/07 07:02:03;;;;;;;0.20;0.20;;;;;;;19.64;47.52;101243.56;5115382;28;20047;-45
2023/05/07 07:04:29;;;;;;;0.20;0.20;;;;;;;19.63;47.46;101250.19;5115450;28;20544;-43
2023/05/07 07:06:56;;;;;;;0.20;0.20;;;;;;;19.64;47.17;101245.50;5115461;28;20050;-42
2023/05/07 07:09:22;;;;;;;0.20;0.20;;;;;;;19.64;47.22;101248.25;5115520;27;20486;-43
2023/05/07 07:11:49;;;;;;;0.20;0.20;;;;;;;19.63;47.39;101247.44;5099579;27;20039;-41
2023/05/07 07:14:15;;;;;;;0.20;0.20;;;;;;;19.63;47.55;101247.44;5136659;27;20502;-43
2023/05/07 07:16:40;;;;;;;0.20;0.20;;;;;;;19.64;47.38;101242.72;5139840;27;20049;-45
2023/05/07 07:19:06;;;;;;;0.20;0.20;;;;;;;19.63;47.38;101241.91;5139522;27;20338;-43
2023/05/07 07:21:32;;;;;;;0.20;0.20;;;;;;;19.63;47.30;101241.06;5120350;27;20050;-43
2023/05/07 07:23:58;;;;;;;0.20;0.20;;;;;;;19.64;47.41;101245.50;5100635;28;20043;-43
2023/05/07 07:26:23;;;;;;;0.20;0.20;;;;;;;19.64;47.58;101248.25;5118860;28;20070;-44
2023/05/07 07:28:49;;;;;;;0.20;0.20;;;;;;;19.63;47.28;101246.59;5118865;28;20043;-45
2023/05/07 07:31:15;;;;;;;0.20;0.20;;;;;;;19.64;47.42;101251.00;5118647;27;20732;-44
2023/05/07 07:33:41;;;;;;;0.20;0.20;;;;;;;19.63;47.29;101255.72;5100382;28;20060;-44
2023/05/07 07:36:07;;;;;;;0.20;0.20;;;;;;;19.64;47.29;101242.72;5100378;28;20105;-46
2023/05/07 07:38:33;;;;;;;0.20;0.20;;;;;;;19.64;47.17;101251.00;5100185;28;20120;-42
2023/05/07 07:41:00;;;;;;;0.20;0.20;;;;;;;19.64;47.28;101251.00;5100022;28;20043;-45
2023/05/07 07:43:25;;;;;;;0.20;0.20;;;;;;;19.64;47.20;101248.25;5118966;28;20430;-42
2023/05/07 07:45:51;;;;;;;0.20;0.20;;;;;;;19.64;47.17;101253.78;5118460;28;20039;-41
2023/05/07 07:48:17;;;;;;;0.20;0.20;;;;;;;19.64;47.15;101257.38;5118794;28;20297;-42
2023/05/07 07:50:42;;;;;;;0.20;0.20;;;;;;;19.63;47.46;101250.19;5117718;28;20425;-43
2023/05/07 07:53:11;;;;;;;0.20;0.20;;;;;;;19.63;47.43;101252.13;5118984;28;20043;-45
2023/05/07 07:55:39;;;;;;;0.20;0.20;;;;;;;19.63;47.47;101250.19;5118444;28;20042;-43
2023/05/07 07:58:05;;;;;;;0.10;0.10;;;;;;;19.64;47.42;101253.78;5118141;28;20051;-42
2023/05/07 08:00:30;;;;;;;0.20;0.20;;;;;;;19.64;47.21;101245.50;5118062;28;20047;-44
2023/05/07 08:02:56;;;;;;;0.38;0.38;;;;;;;19.64;47.60;101256.53;5118947;28;20039;-44
2023/05/07 08:05:23;;;;;;;0.20;0.20;;;;;;;19.64;47.48;101259.31;5118258;28;20443;-46
2023/05/07 08:07:51;;;;;;;0.20;0.20;;;;;;;19.63;47.46;101258.47;5099173;28;20085;-41
2023/05/07 08:10:21;;;;;;;0.20;0.20;;;;;;;19.64;47.21;101259.31;5117872;27;20128;-44
2023/05/07 08:12:48;;;;;;;0.40;0.30;;;;;;;19.64;47.23;101259.31;5137749;27;20108;-41
2023/05/07 08:15:14;;;;;;;0.20;0.20;;;;;;;19.64;47.32;101256.53;5139130;27;20160;-43
2023/05/07 08:17:40;;;;;;;0.20;0.20;;;;;;;19.64;47.41;101264.81;5120427;27;20706;-42
2023/05/07 08:20:07;;;;;;;0.20;0.20;;;;;;;19.64;47.39;101259.31;5131088;27;20043;-43
2023/05/07 08:22:34;;;;;;;0.20;0.20;;;;;;;19.64;47.33;101262.06;5118200;28;20050;-43
2023/05/07 08:25:00;;;;;;;0.20;0.20;;;;;;;19.64;47.59;101262.06;5118156;28;20124;-43
2023/05/07 08:27:26;;;;;;;0.30;0.30;;;;;;;19.64;47.55;101262.06;5117366;27;20581;-45
2023/05/07 08:29:51;;;;;;;0.20;0.20;;;;;;;19.64;47.36;101273.13;5117476;28;20043;-45
2023/05/07 08:32:17;;;;;;;0.28;0.28;;;;;;;19.64;47.47;101265.66;5117640;27;20043;-42
2023/05/07 08:34:43;;;;;;;0.20;0.20;;;;;;;19.64;47.53;101267.59;5118451;28;20410;-42
2023/05/07 08:37:08;;;;;;;0.20;0.20;;;;;;;19.64;47.59;101267.59;5118136;28;20058;-42
2023/05/07 08:39:34;;;;;;;0.20;0.20;;;;;;;19.64;47.54;101275.88;5116891;28;20403;-41
2023/05/07 08:42:03;;;;;;;0.20;0.20;;;;;;;19.63;47.40;101269.53;5117504;28;20103;-43
2023/05/07 08:44:33;;;;;;;0.20;0.20;;;;;;;19.64;47.57;101271.19;5128462;27;20528;-44
2023/05/07 08:47:00;;;;;;;0.20;0.20;;;;;;;19.64;47.22;101270.34;5138437;27;20108;-43
2023/05/07 08:49:27;;;;;;;0.20;0.20;;;;;;;19.63;47.48;101272.28;5136168;27;20038;-43
2023/05/07 08:51:53;;;;;;;0.20;0.20;;;;;;;19.63;47.37;101277.81;5098941;28;20330;-44
2023/05/07 08:54:20;;;;;;;0.20;0.20;;;;;;;19.64;47.64;101271.19;5115973;28;20055;-43
2023/05/07 08:56:46;;;;;;;0.20;0.20;;;;;;;19.64;47.37;101275.88;5099336;28;20534;-43
2023/05/07 08:59:11;;;;;;;0.20;0.20;;;;;;;19.63;47.64;101269.53;5116921;28;20047;-43
2023/05/07 09:01:38;;;;;;;0.20;0.20;;;;;;;19.63;47.56;101280.59;5116367;28;20050;-42
2023/05/07 09:04:04;;;;;;;0.20;0.20;;;;;;;19.64;47.48;101270.34;5117533;28;20055;-42
2023/05/07 09:06:30;;;;;;;0.20;0.20;;;;;;;19.63;47.17;101275.06;5118067;28;20378;-43
2023/05/07 09:08:55;;;;;;;0.20;0.20;;;;;;;19.63;47.13;101275.06;5109252;28;20069;-42
2023/05/07 09:11:22;;;;;;;0.20;0.20;;;;;;;19.64;47.53;101275.88;5121870;27;20047;-41
2023/05/07 09:13:48;;;;;;;0.22;0.22;;;;;;;19.64;47.33;101275.88;5102569;27;20042;-43
2023/05/07 09:16:14;;;;;;;0.30;0.30;;;;;;;19.64;47.53;101270.34;5106355;28;20047;-42
2023/05/07 09:18:42;;;;;;;0.20;0.20;;;;;;;19.64;47.24;101273.13;5117283;28;20101;-41
2023/05/07 09:21:10;;;;;;;0.20;0.20;;;;;;;19.63;47.48;101268.69;5098804;28;20476;-43
2023/05/07 09:23:36;;;;;;;;;;;;;;;19.64;47.22;101275.88;5117731;28;20081;-41
2023/05/07 09:26:02;;;;;;;0.20;0.20;;;;;;;19.63;47.38;101274.22;5117719;28;19923;-41
2023/05/07 09:28:27;;;;;;;0.20;0.20;;;;;;;19.63;47.26;101265.94;5116657;28;20043;-41
2023/05/07 09:30:53;;;;;;;0.20;0.20;;;;;;;19.63;47.46;101269.53;5116687;28;20043;-42
2023/05/07 09:33:18;;;;;;;0.20;0.20;;;;;;;19.63;47.42;101272.28;5116839;27;20043;-42
2023/05/07 09:35:44;;;;;;;0.20;0.20;;;;;;;19.63;47.39;101269.53;5117041;28;20511;-42
2023/05/07 09:38:10;;;;;;;0.20;0.20;;;;;;;19.63;47.39;101275.06;5116185;27;20199;-42
2023/05/07 09:40:36;;;;;;;0.20;0.20;;;;;;;19.63;47.34;101264.00;5116640;28;20051;-43
2023/05/07 09:43:10;;;;;;;0.20;0.20;;;;;;;19.64;47.40;101270.34;5116906;28;20043;-42
2023/05/07 09:45:36;;;;;;;0.30;0.30;;;;;;;19.63;47.05;101271.47;5098193;28;20047;-42
2023/05/07 09:48:04;;;;;;;0.20;0.20;;;;;;;19.63;47.30;101274.22;5117203;28;20046;-41
2023/05/07 09:50:35;;;;;;;0.22;0.22;;;;;;;19.64;47.29;101276.72;5097189;28;20051;-44
2023/05/07 09:53:03;;;;;;;0.20;0.20;;;;;;;19.63;47.21;101275.06;5097713;28;20047;-43
2023/05/07 09:55:29;;;;;;;0.20;0.20;;;;;;;19.63;47.43;101269.53;5115840;28;20068;-42
2023/05/07 09:57:55;;;;;;;0.20;0.20;;;;;;;19.64;47.45;101265.66;5116379;28;20049;-41
2023/05/07 10:00:22;;;;;;;0.20;0.20;;;;;;;19.64;47.16;101262.06;5097475;28;20051;-41
2023/05/07 10:02:51;;;;;;;0.20;0.20;;;;;;;19.65;47.48;101258.22;5104554;28;20078;-43
2023/05/07 10:05:17;;;;;;;0.20;0.20;;;;;;;19.64;47.48;101264.81;5114919;28;20047;-43
2023/05/07 10:07:44;;;;;;;0.20;0.20;;;;;;;19.63;47.22;101264.00;5097497;28;20082;-44
2023/05/07 10:10:10;;;;;;;0.20;0.20;;;;;;;19.64;47.34;101262.06;5103290;27;20054;-45
2023/05/07 10:12:38;;;;;;;0.20;0.20;;;;;;;19.65;47.45;101263.75;5114942;27;20434;-42
2023/05/07 10:15:06;;;;;;;0.20;0.20;;;;;;;19.64;47.32;101259.31;5136768;27;20038;-45
2023/05/07 10:17:35;;;;;;;0.20;0.20;;;;;;;19.64;47.22;101264.81;5136814;27;20043;-42
2023/05/07 10:20:01;;;;;;;0.20;0.20;;;;;;;19.63;47.54;101266.75;5110851;28;20109;-42
2023/05/07 10:22:33;;;;;;;0.20;0.20;;;;;;;19.63;47.22;101264.00;5116285;28;20145;-42
2023/05/07 10:24:59;;;;;;;0.20;0.20;;;;;;;19.63;47.24;101264.00;5115666;28;20520;-43
2023/05/07 10:27:25;;;;;;;0.20;0.20;;;;;;;19.64;47.42;101257.38;5096940;28;20295;-43
2023/05/07 10:30:04;;;;;;;0.20;0.20;;;;;;;19.63;47.20;101254.88;5116219;28;20223;-44
2023/05/07 10:32:50;;;;;;;0.20;0.20;;;;;;;19.64;47.38;101262.06;5115516;27;20058;-41
2023/05/07 10:35:21;;;;;;;0.20;0.20;;;;;;;19.63;47.54;101266.75;5083819;28;20452;-42
2023/05/07 10:37:47;;;;;;;0.20;0.20;;;;;;;19.63;47.05;101266.75;5116097;28;20088;-42
2023/05/07 10:40:13;;;;;;;0.20;0.20;;;;;;;19.63;47.43;101266.75;5097590;28;20100;-43
2023/05/07 10:42:39;;;;;;;0.20;0.20;;;;;;;19.64;47.22;101268.41;5115754;28;20047;-42
2023/05/07 10:45:20;;;;;;;0.25;0.25;;;;;;;19.64;47.34;101264.81;5116002;28;20044;-43
2023/05/07 10:48:21;;;;;;;0.20;0.20;;;;;;;19.64;47.27;101262.06;5115888;28;20078;-42
2023/05/07 10:51:20;;;;;;;0.20;0.20;;;;;;;19.63;47.51;101266.75;5103210;28;20134;-42
2023/05/07 10:53:45;;;;;;;0.20;0.20;;;;;;;19.63;47.47;101260.41;5100794;28;20043;-43
2023/05/07 10:56:24;;;;;;;0.20;0.20;;;;;;;19.64;47.57;101259.31;5115028;28;20062;-42
2023/05/07 10:58:49;;;;;;;;;;;;;;;19.64;47.50;101259.31;5097529;28;20506;-41
2023/05/07 11:01:49;;;;;;;0.20;0.20;;;;;;;19.61;47.38;101263.47;5114824;28;20950;-42
2023/05/07 11:04:15;;;;;;;0.20;0.20;;;;;;;19.63;47.34;101252.94;5083239;28;20051;-44
2023/05/07 11:06:41;;;;;;;0.30;0.30;;;;;;;19.63;47.23;101252.94;5093404;28;20048;-46
2023/05/07 11:09:07;;;;;;;0.20;0.20;;;;;;;19.64;47.45;101254.59;5104868;28;20050;-43
2023/05/07 11:11:51;;;;;;;0.20;0.20;;;;;;;19.64;47.32;101251.00;5104579;28;20414;-44
2023/05/07 11:14:43;;;;;;;0.20;0.20;;;;;;;19.64;47.36;101249.06;5097060;28;20070;-42
2023/05/07 11:17:09;;;;;;;0.20;0.20;;;;;;;19.64;47.39;101253.78;5100710;28;20039;-42
2023/05/07 11:19:55;;;;;;;0.20;0.20;;;;;;;19.65;47.44;101249.94;5096356;28;20047;-42
2023/05/07 11:22:39;;;;;;;0.20;0.20;;;;;;;19.64;47.21;101254.59;5100178;28;20056;-42
2023/05/07 11:25:06;;;;;;;0.20;0.20;;;;;;;19.64;47.31;101248.25;5114514;28;20399;-41